sensor_id;sensor_type;location;lat;lon;timestamp;temperature;humidity
20459;DHT22;10388;52.314;7.938;2023-10-08T00:01:29;17.40;99.90
20459;DHT22;10388;52.314;7.938;2023-10-08T00:04:12;17.40;99.90
20459;DHT22;10388;52.314;7.938;2023-10-08T00:06:50;17.40;99.90
20459;DHT22;10388;52.314;7.938;2023-10-08T00:09:52;17.40;99.90
20459;DHT22;10388;52.314;7.938;2023-10-08T00:12:26;17.40;99.90
20459;DHT22;10388;52.314;7.938;2023-10-08T00:15:33;17.40;99.90
20459;DHT22;10388;52.314;7.938;2023-10-08T00:18:27;17.40;99.90
20459;DHT22;10388;52.314;7.938;2023-10-08T00:21:22;17.40;99.90
20459;DHT22;10388;52.314;7.938;2023-10-08T00:24:09;17.40;99.90
20459;DHT22;10388;52.314;7.938;2023-10-08T00:26:40;17.40;99.90
20459;DHT22;10388;52.314;7.938;2023-10-08T00:29:26;17.40;99.90
20459;DHT22;10388;52.314;7.938;2023-10-08T00:35:11;15.90;99.90
20459;DHT22;10388;52.314;7.938;2023-10-08T00:37:55;15.20;99.90
20459;DHT22;10388;52.314;7.938;2023-10-08T00:40:57;15.00;99.90
20459;DHT22;10388;52.314;7.938;2023-10-08T00:44:00;14.70;99.90
20459;DHT22;10388;52.314;7.938;2023-10-08T00:46:42;14.50;99.90
20459;DHT22;10388;52.314;7.938;2023-10-08T00:49:39;14.40;99.90
20459;DHT22;10388;52.314;7.938;2023-10-08T00:52:35;14.10;99.90
20459;DHT22;10388;52.314;7.938;2023-10-08T00:55:27;14.00;99.90
20459;DHT22;10388;52.314;7.938;2023-10-08T00:58:30;13.80;99.90
20459;DHT22;10388;52.314;7.938;2023-10-08T01:01:12;13.70;99.90
20459;DHT22;10388;52.314;7.938;2023-10-08T01:06:57;13.60;99.90
20459;DHT22;10388;52.314;7.938;2023-10-08T01:09:51;13.60;99.90
20459;DHT22;10388;52.314;7.938;2023-10-08T01:12:25;13.80;99.90
20459;DHT22;10388;52.314;7.938;2023-10-08T01:15:16;13.60;99.90
20459;DHT22;10388;52.314;7.938;2023-10-08T01:17:57;13.30;99.90
20459;DHT22;10388;52.314;7.938;2023-10-08T01:20:34;13.20;99.90
20459;DHT22;10388;52.314;7.938;2023-10-08T01:23:33;13.10;99.90
20459;DHT22;10388;52.314;7.938;2023-10-08T01:29:30;13.00;99.90
20459;DHT22;10388;52.314;7.938;2023-10-08T01:35:16;13.00;99.90
20459;DHT22;10388;52.314;7.938;2023-10-08T01:38:23;12.90;99.90
20459;DHT22;10388;52.314;7.938;2023-10-08T01:41:03;12.80;99.90
20459;DHT22;10388;52.314;7.938;2023-10-08T01:43:40;12.70;99.90
20459;DHT22;10388;52.314;7.938;2023-10-08T01:46:14;12.80;99.90
20459;DHT22;10388;52.314;7.938;2023-10-08T01:48:46;12.90;99.90
20459;DHT22;10388;52.314;7.938;2023-10-08T01:51:22;12.90;99.90
20459;DHT22;10388;52.314;7.938;2023-10-08T01:53:58;12.90;99.90
20459;DHT22;10388;52.314;7.938;2023-10-08T01:56:49;12.80;99.90
20459;DHT22;10388;52.314;7.938;2023-10-08T02:02:19;12.90;99.90
20459;DHT22;10388;52.314;7.938;2023-10-08T02:04:53;12.90;99.90
20459;DHT22;10388;52.314;7.938;2023-10-08T02:07:32;12.90;99.90
20459;DHT22;10388;52.314;7.938;2023-10-08T02:10:32;12.90;99.90
20459;DHT22;10388;52.314;7.938;2023-10-08T02:13:07;13.00;99.90
20459;DHT22;10388;52.314;7.938;2023-10-08T02:15:57;13.00;99.90
20459;DHT22;10388;52.314;7.938;2023-10-08T02:18:28;13.00;99.90
20459;DHT22;10388;52.314;7.938;2023-10-08T02:21:07;13.00;99.90
20459;DHT22;10388;52.314;7.938;2023-10-08T02:23:43;13.00;99.90
20459;DHT22;10388;52.314;7.938;2023-10-08T02:26:14;12.90;99.90
20459;DHT22;10388;52.314;7.938;2023-10-08T02:28:45;12.90;99.90
20459;DHT22;10388;52.314;7.938;2023-10-08T02:31:24;13.00;99.90
20459;DHT22;10388;52.314;7.938;2023-10-08T02:34:00;13.00;99.90
20459;DHT22;10388;52.314;7.938;2023-10-08T02:36:31;13.00;99.90
20459;DHT22;10388;52.314;7.938;2023-10-08T02:39:05;12.90;99.90
20459;DHT22;10388;52.314;7.938;2023-10-08T02:41:54;12.90;99.90
20459;DHT22;10388;52.314;7.938;2023-10-08T02:44:32;12.80;99.90
20459;DHT22;10388;52.314;7.938;2023-10-08T02:47:13;12.90;99.90
20459;DHT22;10388;52.314;7.938;2023-10-08T02:49:49;12.90;99.90
20459;DHT22;10388;52.314;7.938;2023-10-08T02:52:23;12.90;99.90
20459;DHT22;10388;52.314;7.938;2023-10-08T02:54:53;12.90;99.90
20459;DHT22;10388;52.314;7.938;2023-10-08T02:57:26;12.90;99.90
20459;DHT22;10388;52.314;7.938;2023-10-08T03:00:06;12.80;99.90
20459;DHT22;10388;52.314;7.938;2023-10-08T03:02:43;12.70;99.90
20459;DHT22;10388;52.314;7.938;2023-10-08T03:05:14;12.70;99.90
20459;DHT22;10388;52.314;7.938;2023-10-08T03:07:50;12.70;99.90
20459;DHT22;10388;52.314;7.938;2023-10-08T03:10:30;12.70;99.90
20459;DHT22;10388;52.314;7.938;2023-10-08T03:13:16;12.70;99.90
20459;DHT22;10388;52.314;7.938;2023-10-08T03:15:52;12.80;99.90
20459;DHT22;10388;52.314;7.938;2023-10-08T03:18:37;12.80;99.90
20459;DHT22;10388;52.314;7.938;2023-10-08T03:21:16;12.70;99.90
20459;DHT22;10388;52.314;7.938;2023-10-08T03:24:12;12.60;99.90
20459;DHT22;10388;52.314;7.938;2023-10-08T03:27:01;12.60;99.90
20459;DHT22;10388;52.314;7.938;2023-10-08T03:30:00;12.50;99.90
20459;DHT22;10388;52.314;7.938;2023-10-08T03:32:32;12.50;99.90
20459;DHT22;10388;52.314;7.938;2023-10-08T03:35:08;12.60;99.90
20459;DHT22;10388;52.314;7.938;2023-10-08T03:38:00;12.50;99.90
20459;DHT22;10388;52.314;7.938;2023-10-08T03:40:52;12.50;99.90
20459;DHT22;10388;52.314;7.938;2023-10-08T03:43:27;12.50;99.90
20459;DHT22;10388;52.314;7.938;2023-10-08T03:46:29;12.60;99.90
20459;DHT22;10388;52.314;7.938;2023-10-08T03:49:20;12.50;99.90
20459;DHT22;10388;52.314;7.938;2023-10-08T03:51:52;12.50;99.90
20459;DHT22;10388;52.314;7.938;2023-10-08T03:54:30;12.50;99.90
20459;DHT22;10388;52.314;7.938;2023-10-08T03:57:10;12.50;99.90
20459;DHT22;10388;52.314;7.938;2023-10-08T03:59:52;12.40;99.90
20459;DHT22;10388;52.314;7.938;2023-10-08T04:02:32;12.50;99.90
20459;DHT22;10388;52.314;7.938;2023-10-08T04:05:28;12.50;99.90
20459;DHT22;10388;52.314;7.938;2023-10-08T04:08:31;12.50;99.90
20459;DHT22;10388;52.314;7.938;2023-10-08T04:11:24;12.50;99.90
20459;DHT22;10388;52.314;7.938;2023-10-08T04:14:25;12.50;99.90
20459;DHT22;10388;52.314;7.938;2023-10-08T04:16:55;12.50;99.90
20459;DHT22;10388;52.314;7.938;2023-10-08T04:19:26;12.50;99.90
20459;DHT22;10388;52.314;7.938;2023-10-08T04:21:59;12.60;99.90
20459;DHT22;10388;52.314;7.938;2023-10-08T04:24:31;12.50;99.90
20459;DHT22;10388;52.314;7.938;2023-10-08T04:27:05;12.50;99.90
20459;DHT22;10388;52.314;7.938;2023-10-08T04:29:39;12.50;99.90
20459;DHT22;10388;52.314;7.938;2023-10-08T04:32:12;12.40;99.90
20459;DHT22;10388;52.314;7.938;2023-10-08T04:34:51;12.40;99.90
20459;DHT22;10388;52.314;7.938;2023-10-08T04:37:23;12.50;99.90
20459;DHT22;10388;52.314;7.938;2023-10-08T04:40:02;12.40;99.90
20459;DHT22;10388;52.314;7.938;2023-10-08T04:42:35;12.40;99.90
20459;DHT22;10388;52.314;7.938;2023-10-08T04:45:08;12.40;99.90
20459;DHT22;10388;52.314;7.938;2023-10-08T04:47:43;12.40;99.90
20459;DHT22;10388;52.314;7.938;2023-10-08T04:50:14;12.40;99.90
20459;DHT22;10388;52.314;7.938;2023-10-08T04:52:48;12.40;99.90
20459;DHT22;10388;52.314;7.938;2023-10-08T04:55:28;12.40;99.90
20459;DHT22;10388;52.314;7.938;2023-10-08T04:57:59;12.50;99.90
20459;DHT22;10388;52.314;7.938;2023-10-08T05:00:31;12.50;99.90
20459;DHT22;10388;52.314;7.938;2023-10-08T05:03:20;12.50;99.90
20459;DHT22;10388;52.314;7.938;2023-10-08T05:05:53;12.50;99.90
20459;DHT22;10388;52.314;7.938;2023-10-08T05:08:39;12.50;99.90
20459;DHT22;10388;52.314;7.938;2023-10-08T05:11:28;12.50;99.90
20459;DHT22;10388;52.314;7.938;2023-10-08T05:14:38;12.40;99.90
20459;DHT22;10388;52.314;7.938;2023-10-08T05:17:26;12.50;99.90
20459;DHT22;10388;52.314;7.938;2023-10-08T05:20:05;12.40;99.90
20459;DHT22;10388;52.314;7.938;2023-10-08T05:22:38;12.40;99.90
20459;DHT22;10388;52.314;7.938;2023-10-08T05:25:08;12.50;99.90
20459;DHT22;10388;52.314;7.938;2023-10-08T05:27:48;12.40;99.90
20459;DHT22;10388;52.314;7.938;2023-10-08T05:30:27;12.50;99.90
20459;DHT22;10388;52.314;7.938;2023-10-08T05:33:23;12.40;99.90
20459;DHT22;10388;52.314;7.938;2023-10-08T05:36:14;12.40;99.90
20459;DHT22;10388;52.314;7.938;2023-10-08T05:38:49;12.40;99.90
20459;DHT22;10388;52.314;7.938;2023-10-08T05:41:30;12.40;99.90
20459;DHT22;10388;52.314;7.938;2023-10-08T05:44:09;12.40;99.90
20459;DHT22;10388;52.314;7.938;2023-10-08T05:46:54;12.40;99.90
20459;DHT22;10388;52.314;7.938;2023-10-08T05:49:24;12.40;99.90
20459;DHT22;10388;52.314;7.938;2023-10-08T05:52:01;12.30;99.90
20459;DHT22;10388;52.314;7.938;2023-10-08T05:54:34;12.30;99.90
20459;DHT22;10388;52.314;7.938;2023-10-08T05:57:07;12.40;99.90
20459;DHT22;10388;52.314;7.938;2023-10-08T05:59:42;12.30;99.90
20459;DHT22;10388;52.314;7.938;2023-10-08T06:02:26;12.40;99.90
20459;DHT22;10388;52.314;7.938;2023-10-08T06:05:04;12.40;99.90
20459;DHT22;10388;52.314;7.938;2023-10-08T06:07:53;12.40;99.90
20459;DHT22;10388;52.314;7.938;2023-10-08T06:10:31;12.40;99.90
20459;DHT22;10388;52.314;7.938;2023-10-08T06:13:12;12.30;99.90
20459;DHT22;10388;52.314;7.938;2023-10-08T06:16:15;12.40;99.90
20459;DHT22;10388;52.314;7.938;2023-10-08T06:19:01;12.40;99.90
20459;DHT22;10388;52.314;7.938;2023-10-08T06:21:32;12.40;99.90
20459;DHT22;10388;52.314;7.938;2023-10-08T06:24:02;12.40;99.90
20459;DHT22;10388;52.314;7.938;2023-10-08T06:26:39;12.40;99.90
20459;DHT22;10388;52.314;7.938;2023-10-08T06:29:13;12.50;99.90
20459;DHT22;10388;52.314;7.938;2023-10-08T06:31:58;12.40;99.90
20459;DHT22;10388;52.314;7.938;2023-10-08T06:34:32;12.40;99.90
20459;DHT22;10388;52.314;7.938;2023-10-08T06:37:02;12.40;99.90
20459;DHT22;10388;52.314;7.938;2023-10-08T06:39:34;12.50;99.90
20459;DHT22;10388;52.314;7.938;2023-10-08T06:42:17;12.40;99.90
20459;DHT22;10388;52.314;7.938;2023-10-08T06:44:48;12.40;99.90
20459;DHT22;10388;52.314;7.938;2023-10-08T06:47:18;12.40;99.90
20459;DHT22;10388;52.314;7.938;2023-10-08T06:49:51;12.40;99.90
20459;DHT22;10388;52.314;7.938;2023-10-08T06:52:22;12.50;99.90
20459;DHT22;10388;52.314;7.938;2023-10-08T06:54:53;12.50;99.90
20459;DHT22;10388;52.314;7.938;2023-10-08T06:57:24;12.60;99.90
20459;DHT22;10388;52.314;7.938;2023-10-08T06:59:56;12.50;99.90
20459;DHT22;10388;52.314;7.938;2023-10-08T07:02:29;12.50;99.90
20459;DHT22;10388;52.314;7.938;2023-10-08T07:05:00;12.60;99.90
20459;DHT22;10388;52.314;7.938;2023-10-08T07:07:39;12.70;99.90
20459;DHT22;10388;52.314;7.938;2023-10-08T07:10:14;12.70;99.90
20459;DHT22;10388;52.314;7.938;2023-10-08T07:12:50;12.70;99.90
20459;DHT22;10388;52.314;7.938;2023-10-08T07:15:23;12.70;99.90
20459;DHT22;10388;52.314;7.938;2023-10-08T07:17:57;12.80;99.90
20459;DHT22;10388;52.314;7.938;2023-10-08T07:20:27;12.70;99.90
20459;DHT22;10388;52.314;7.938;2023-10-08T07:22:58;12.80;99.90
20459;DHT22;10388;52.314;7.938;2023-10-08T07:25:29;12.80;99.90
20459;DHT22;10388;52.314;7.938;2023-10-08T07:28:07;12.80;99.90
20459;DHT22;10388;52.314;7.938;2023-10-08T07:30:42;12.90;99.90
20459;DHT22;10388;52.314;7.938;2023-10-08T07:33:14;13.00;99.90
20459;DHT22;10388;52.314;7.938;2023-10-08T07:35:55;13.10;99.90
20459;DHT22;10388;52.314;7.938;2023-10-08T07:38:34;13.10;99.90
20459;DHT22;10388;52.314;7.938;2023-10-08T07:41:05;13.10;99.90
20459;DHT22;10388;52.314;7.938;2023-10-08T07:43:36;13.10;99.90
20459;DHT22;10388;52.314;7.938;2023-10-08T07:46:06;13.20;99.90
20459;DHT22;10388;52.314;7.938;2023-10-08T07:48:37;13.10;99.90
20459;DHT22;10388;52.314;7.938;2023-10-08T07:51:14;13.10;99.90
20459;DHT22;10388;52.314;7.938;2023-10-08T07:53:45;13.20;99.90
20459;DHT22;10388;52.314;7.938;2023-10-08T07:56:15;13.20;99.90
20459;DHT22;10388;52.314;7.938;2023-10-08T07:58:48;13.20;99.90
20459;DHT22;10388;52.314;7.938;2023-10-08T08:01:18;13.20;99.90
20459;DHT22;10388;52.314;7.938;2023-10-08T08:03:51;13.30;99.90
20459;DHT22;10388;52.314;7.938;2023-10-08T08:06:21;13.30;99.90
20459;DHT22;10388;52.314;7.938;2023-10-08T08:08:52;13.30;99.90
20459;DHT22;10388;52.314;7.938;2023-10-08T08:11:23;13.30;99.90
20459;DHT22;10388;52.314;7.938;2023-10-08T08:13:56;13.30;99.90
20459;DHT22;10388;52.314;7.938;2023-10-08T08:16:27;13.20;99.90
20459;DHT22;10388;52.314;7.938;2023-10-08T08:18:59;13.10;99.90
20459;DHT22;10388;52.314;7.938;2023-10-08T08:21:30;13.20;99.90
20459;DHT22;10388;52.314;7.938;2023-10-08T08:24:01;13.30;99.90
20459;DHT22;10388;52.314;7.938;2023-10-08T08:26:38;13.30;99.90
20459;DHT22;10388;52.314;7.938;2023-10-08T08:29:31;13.30;99.90
20459;DHT22;10388;52.314;7.938;2023-10-08T08:32:06;13.40;99.90
20459;DHT22;10388;52.314;7.938;2023-10-08T08:34:38;13.60;99.90
20459;DHT22;10388;52.314;7.938;2023-10-08T08:37:14;13.60;99.90
20459;DHT22;10388;52.314;7.938;2023-10-08T08:39:44;13.60;99.90
20459;DHT22;10388;52.314;7.938;2023-10-08T08:42:21;13.40;99.90
20459;DHT22;10388;52.314;7.938;2023-10-08T08:44:52;13.40;99.90
20459;DHT22;10388;52.314;7.938;2023-10-08T08:47:25;13.50;99.90
20459;DHT22;10388;52.314;7.938;2023-10-08T08:49:59;13.60;99.90
20459;DHT22;10388;52.314;7.938;2023-10-08T08:52:30;13.70;99.90
20459;DHT22;10388;52.314;7.938;2023-10-08T08:55:01;13.80;99.90
20459;DHT22;10388;52.314;7.938;2023-10-08T08:57:37;13.70;99.90
20459;DHT22;10388;52.314;7.938;2023-10-08T09:00:15;13.70;99.90
20459;DHT22;10388;52.314;7.938;2023-10-08T09:02:48;13.80;99.90
20459;DHT22;10388;52.314;7.938;2023-10-08T09:05:19;13.80;99.90
20459;DHT22;10388;52.314;7.938;2023-10-08T09:08:01;14.00;99.90
20459;DHT22;10388;52.314;7.938;2023-10-08T09:10:36;14.10;99.90
20459;DHT22;10388;52.314;7.938;2023-10-08T09:13:08;14.00;99.90
20459;DHT22;10388;52.314;7.938;2023-10-08T09:15:39;14.00;99.90
20459;DHT22;10388;52.314;7.938;2023-10-08T09:18:10;13.90;99.90
20459;DHT22;10388;52.314;7.938;2023-10-08T09:20:40;13.90;99.90
20459;DHT22;10388;52.314;7.938;2023-10-08T09:23:16;14.00;99.90
20459;DHT22;10388;52.314;7.938;2023-10-08T09:25:52;14.00;99.90
20459;DHT22;10388;52.314;7.938;2023-10-08T09:28:32;14.10;99.90
20459;DHT22;10388;52.314;7.938;2023-10-08T09:31:04;14.10;99.90
20459;DHT22;10388;52.314;7.938;2023-10-08T09:33:36;14.20;99.90
20459;DHT22;10388;52.314;7.938;2023-10-08T09:36:09;14.20;99.90
20459;DHT22;10388;52.314;7.938;2023-10-08T09:38:41;14.20;99.90
20459;DHT22;10388;52.314;7.938;2023-10-08T09:41:14;14.20;99.90
20459;DHT22;10388;52.314;7.938;2023-10-08T09:43:46;14.10;99.90
20459;DHT22;10388;52.314;7.938;2023-10-08T09:46:20;14.30;99.90
20459;DHT22;10388;52.314;7.938;2023-10-08T09:48:57;14.40;99.90
20459;DHT22;10388;52.314;7.938;2023-10-08T09:51:30;14.60;99.90
20459;DHT22;10388;52.314;7.938;2023-10-08T09:54:09;14.80;99.90
20459;DHT22;10388;52.314;7.938;2023-10-08T09:56:40;14.90;99.90
20459;DHT22;10388;52.314;7.938;2023-10-08T09:59:12;15.00;99.90
20459;DHT22;10388;52.314;7.938;2023-10-08T10:01:45;15.00;99.90
20459;DHT22;10388;52.314;7.938;2023-10-08T10:04:23;15.10;99.90
20459;DHT22;10388;52.314;7.938;2023-10-08T10:07:12;15.40;99.90
20459;DHT22;10388;52.314;7.938;2023-10-08T10:09:45;15.30;99.90
20459;DHT22;10388;52.314;7.938;2023-10-08T10:12:24;15.10;99.90
20459;DHT22;10388;52.314;7.938;2023-10-08T10:14:56;15.00;99.90
20459;DHT22;10388;52.314;7.938;2023-10-08T10:17:27;15.10;99.90
20459;DHT22;10388;52.314;7.938;2023-10-08T10:20:02;15.20;99.90
20459;DHT22;10388;52.314;7.938;2023-10-08T10:22:34;15.40;99.90
20459;DHT22;10388;52.314;7.938;2023-10-08T10:25:07;15.40;99.90
20459;DHT22;10388;52.314;7.938;2023-10-08T10:30:26;15.40;99.90
20459;DHT22;10388;52.314;7.938;2023-10-08T10:33:00;15.20;99.90
20459;DHT22;10388;52.314;7.938;2023-10-08T10:35:31;15.20;99.90
20459;DHT22;10388;52.314;7.938;2023-10-08T10:38:04;15.00;99.90
20459;DHT22;10388;52.314;7.938;2023-10-08T10:40:36;15.00;99.90
20459;DHT22;10388;52.314;7.938;2023-10-08T10:43:11;15.10;99.90
20459;DHT22;10388;52.314;7.938;2023-10-08T10:45:46;15.10;99.90
20459;DHT22;10388;52.314;7.938;2023-10-08T10:48:17;15.20;99.90
20459;DHT22;10388;52.314;7.938;2023-10-08T10:50:51;15.10;99.90
20459;DHT22;10388;52.314;7.938;2023-10-08T10:53:38;15.00;99.90
20459;DHT22;10388;52.314;7.938;2023-10-08T10:56:26;15.00;99.90
20459;DHT22;10388;52.314;7.938;2023-10-08T10:59:01;15.20;99.90
20459;DHT22;10388;52.314;7.938;2023-10-08T11:01:47;15.30;99.90
20459;DHT22;10388;52.314;7.938;2023-10-08T11:04:22;15.20;99.90
20459;DHT22;10388;52.314;7.938;2023-10-08T11:06:59;15.20;99.90
20459;DHT22;10388;52.314;7.938;2023-10-08T11:09:31;15.30;99.90
20459;DHT22;10388;52.314;7.938;2023-10-08T11:12:09;15.40;99.90
20459;DHT22;10388;52.314;7.938;2023-10-08T11:14:42;15.50;99.90
20459;DHT22;10388;52.314;7.938;2023-10-08T11:17:15;15.40;99.90
20459;DHT22;10388;52.314;7.938;2023-10-08T11:19:46;15.30;99.90
20459;DHT22;10388;52.314;7.938;2023-10-08T11:22:17;15.30;99.90
20459;DHT22;10388;52.314;7.938;2023-10-08T11:24:49;15.40;99.90
20459;DHT22;10388;52.314;7.938;2023-10-08T11:27:24;15.50;99.90
20459;DHT22;10388;52.314;7.938;2023-10-08T11:30:06;15.50;99.90
20459;DHT22;10388;52.314;7.938;2023-10-08T11:32:41;15.50;99.90
20459;DHT22;10388;52.314;7.938;2023-10-08T11:35:18;15.60;99.90
20459;DHT22;10388;52.314;7.938;2023-10-08T11:37:50;15.70;99.90
20459;DHT22;10388;52.314;7.938;2023-10-08T11:40:28;15.50;99.90
20459;DHT22;10388;52.314;7.938;2023-10-08T11:42:58;15.40;99.90
20459;DHT22;10388;52.314;7.938;2023-10-08T11:45:29;15.40;99.90
20459;DHT22;10388;52.314;7.938;2023-10-08T11:48:09;15.60;99.90
20459;DHT22;10388;52.314;7.938;2023-10-08T11:50:42;15.70;99.90
20459;DHT22;10388;52.314;7.938;2023-10-08T11:53:13;15.70;99.90
20459;DHT22;10388;52.314;7.938;2023-10-08T11:55:44;15.50;99.90
20459;DHT22;10388;52.314;7.938;2023-10-08T11:58:15;15.30;99.90
20459;DHT22;10388;52.314;7.938;2023-10-08T12:00:50;15.40;99.90
20459;DHT22;10388;52.314;7.938;2023-10-08T12:03:22;15.50;99.90
20459;DHT22;10388;52.314;7.938;2023-10-08T12:05:56;15.60;99.90
20459;DHT22;10388;52.314;7.938;2023-10-08T12:08:30;15.80;99.90
20459;DHT22;10388;52.314;7.938;2023-10-08T12:11:00;15.90;99.90
20459;DHT22;10388;52.314;7.938;2023-10-08T12:13:32;15.80;99.90
20459;DHT22;10388;52.314;7.938;2023-10-08T12:16:03;15.70;99.90
20459;DHT22;10388;52.314;7.938;2023-10-08T12:18:36;15.80;99.90
20459;DHT22;10388;52.314;7.938;2023-10-08T12:21:10;16.00;99.90
20459;DHT22;10388;52.314;7.938;2023-10-08T12:23:41;16.10;99.90
20459;DHT22;10388;52.314;7.938;2023-10-08T12:26:14;16.20;99.90
20459;DHT22;10388;52.314;7.938;2023-10-08T12:28:49;16.10;99.90
20459;DHT22;10388;52.314;7.938;2023-10-08T12:31:21;15.90;99.90
20459;DHT22;10388;52.314;7.938;2023-10-08T12:33:55;16.10;99.90
20459;DHT22;10388;52.314;7.938;2023-10-08T12:36:27;16.20;99.90
20459;DHT22;10388;52.314;7.938;2023-10-08T12:39:03;16.40;99.90
20459;DHT22;10388;52.314;7.938;2023-10-08T12:41:43;16.50;99.90
20459;DHT22;10388;52.314;7.938;2023-10-08T12:44:14;16.50;99.90
20459;DHT22;10388;52.314;7.938;2023-10-08T12:46:46;16.60;99.90
20459;DHT22;10388;52.314;7.938;2023-10-08T12:49:19;16.50;99.90
20459;DHT22;10388;52.314;7.938;2023-10-08T12:51:51;16.40;99.90
20459;DHT22;10388;52.314;7.938;2023-10-08T12:54:23;16.40;99.90
20459;DHT22;10388;52.314;7.938;2023-10-08T12:56:57;16.40;99.90
20459;DHT22;10388;52.314;7.938;2023-10-08T12:59:29;16.30;99.90
20459;DHT22;10388;52.314;7.938;2023-10-08T13:02:00;16.30;99.90
20459;DHT22;10388;52.314;7.938;2023-10-08T13:04:37;16.50;99.90
20459;DHT22;10388;52.314;7.938;2023-10-08T13:07:11;16.60;99.90
20459;DHT22;10388;52.314;7.938;2023-10-08T13:09:42;16.50;99.90
20459;DHT22;10388;52.314;7.938;2023-10-08T13:12:13;16.40;99.90
20459;DHT22;10388;52.314;7.938;2023-10-08T13:14:45;16.30;99.90
20459;DHT22;10388;52.314;7.938;2023-10-08T13:17:16;16.40;99.90
20459;DHT22;10388;52.314;7.938;2023-10-08T13:19:46;16.50;99.90
20459;DHT22;10388;52.314;7.938;2023-10-08T13:22:17;16.50;99.90
20459;DHT22;10388;52.314;7.938;2023-10-08T13:24:50;16.50;99.90
20459;DHT22;10388;52.314;7.938;2023-10-08T13:27:21;16.40;99.90
20459;DHT22;10388;52.314;7.938;2023-10-08T13:29:53;16.40;99.90
20459;DHT22;10388;52.314;7.938;2023-10-08T13:32:24;16.40;99.90
20459;DHT22;10388;52.314;7.938;2023-10-08T13:34:55;16.40;99.90
20459;DHT22;10388;52.314;7.938;2023-10-08T13:37:25;16.40;99.90
20459;DHT22;10388;52.314;7.938;2023-10-08T13:39:56;16.30;99.90
20459;DHT22;10388;52.314;7.938;2023-10-08T13:42:27;16.30;99.90
20459;DHT22;10388;52.314;7.938;2023-10-08T13:44:57;16.30;99.90
20459;DHT22;10388;52.314;7.938;2023-10-08T13:47:29;16.20;99.90
20459;DHT22;10388;52.314;7.938;2023-10-08T13:50:04;16.30;99.90
20459;DHT22;10388;52.314;7.938;2023-10-08T13:52:43;16.30;99.90
20459;DHT22;10388;52.314;7.938;2023-10-08T13:55:14;16.20;99.90
20459;DHT22;10388;52.314;7.938;2023-10-08T13:57:47;16.10;99.90
20459;DHT22;10388;52.314;7.938;2023-10-08T14:00:18;15.90;99.90
20459;DHT22;10388;52.314;7.938;2023-10-08T14:02:56;15.80;99.90
20459;DHT22;10388;52.314;7.938;2023-10-08T14:05:27;15.70;99.90
20459;DHT22;10388;52.314;7.938;2023-10-08T14:08:00;15.70;99.90
20459;DHT22;10388;52.314;7.938;2023-10-08T14:10:32;15.70;99.90
20459;DHT22;10388;52.314;7.938;2023-10-08T14:13:03;15.80;99.90
20459;DHT22;10388;52.314;7.938;2023-10-08T14:15:33;15.70;99.90
20459;DHT22;10388;52.314;7.938;2023-10-08T14:18:07;15.60;99.90
20459;DHT22;10388;52.314;7.938;2023-10-08T14:20:38;15.60;99.90
20459;DHT22;10388;52.314;7.938;2023-10-08T14:23:11;15.50;99.90
20459;DHT22;10388;52.314;7.938;2023-10-08T14:25:41;15.40;99.90
20459;DHT22;10388;52.314;7.938;2023-10-08T14:28:15;15.40;99.90
20459;DHT22;10388;52.314;7.938;2023-10-08T14:30:52;15.40;99.90
20459;DHT22;10388;52.314;7.938;2023-10-08T14:33:27;15.30;99.90
20459;DHT22;10388;52.314;7.938;2023-10-08T14:36:01;15.30;99.90
20459;DHT22;10388;52.314;7.938;2023-10-08T14:38:50;15.30;99.90
20459;DHT22;10388;52.314;7.938;2023-10-08T14:41:39;15.30;99.90
20459;DHT22;10388;52.314;7.938;2023-10-08T14:44:29;15.30;99.90
20459;DHT22;10388;52.314;7.938;2023-10-08T14:46:59;15.20;99.90
20459;DHT22;10388;52.314;7.938;2023-10-08T14:49:30;15.10;99.90
20459;DHT22;10388;52.314;7.938;2023-10-08T14:52:02;15.10;99.90
20459;DHT22;10388;52.314;7.938;2023-10-08T14:54:34;15.10;99.90
20459;DHT22;10388;52.314;7.938;2023-10-08T14:57:05;15.20;99.90
20459;DHT22;10388;52.314;7.938;2023-10-08T14:59:36;15.20;99.90
20459;DHT22;10388;52.314;7.938;2023-10-08T15:02:06;15.20;99.90
20459;DHT22;10388;52.314;7.938;2023-10-08T15:04:37;15.20;99.90
20459;DHT22;10388;52.314;7.938;2023-10-08T15:07:10;15.20;99.90
20459;DHT22;10388;52.314;7.938;2023-10-08T15:09:41;15.10;99.90
20459;DHT22;10388;52.314;7.938;2023-10-08T15:12:13;15.10;99.90
20459;DHT22;10388;52.314;7.938;2023-10-08T15:14:46;15.10;99.90
20459;DHT22;10388;52.314;7.938;2023-10-08T15:17:19;15.10;99.90
20459;DHT22;10388;52.314;7.938;2023-10-08T15:19:49;15.10;99.90
20459;DHT22;10388;52.314;7.938;2023-10-08T15:22:21;15.00;99.90
20459;DHT22;10388;52.314;7.938;2023-10-08T15:24:52;15.00;99.90
20459;DHT22;10388;52.314;7.938;2023-10-08T15:27:22;15.00;99.90
20459;DHT22;10388;52.314;7.938;2023-10-08T15:29:53;14.90;99.90
20459;DHT22;10388;52.314;7.938;2023-10-08T15:32:24;14.90;99.90
20459;DHT22;10388;52.314;7.938;2023-10-08T15:34:55;14.90;99.90
20459;DHT22;10388;52.314;7.938;2023-10-08T15:37:26;14.80;99.90
20459;DHT22;10388;52.314;7.938;2023-10-08T15:39:56;14.80;99.90
20459;DHT22;10388;52.314;7.938;2023-10-08T15:42:27;14.80;99.90
20459;DHT22;10388;52.314;7.938;2023-10-08T15:44:58;14.80;99.90
20459;DHT22;10388;52.314;7.938;2023-10-08T15:47:29;14.80;99.90
20459;DHT22;10388;52.314;7.938;2023-10-08T15:50:01;14.70;99.90
20459;DHT22;10388;52.314;7.938;2023-10-08T15:52:31;14.60;99.90
20459;DHT22;10388;52.314;7.938;2023-10-08T15:55:02;14.60;99.90
20459;DHT22;10388;52.314;7.938;2023-10-08T15:57:34;14.60;99.90
20459;DHT22;10388;52.314;7.938;2023-10-08T16:00:08;14.60;99.90
20459;DHT22;10388;52.314;7.938;2023-10-08T16:02:39;14.60;99.90
20459;DHT22;10388;52.314;7.938;2023-10-08T16:05:09;14.50;99.90
20459;DHT22;10388;52.314;7.938;2023-10-08T16:07:40;14.50;99.90
20459;DHT22;10388;52.314;7.938;2023-10-08T16:10:11;14.50;99.90
20459;DHT22;10388;52.314;7.938;2023-10-08T16:12:42;14.40;99.90
20459;DHT22;10388;52.314;7.938;2023-10-08T16:15:12;14.40;99.90
20459;DHT22;10388;52.314;7.938;2023-10-08T16:17:43;14.40;99.90
20459;DHT22;10388;52.314;7.938;2023-10-08T16:20:14;14.30;99.90
20459;DHT22;10388;52.314;7.938;2023-10-08T16:22:45;14.30;99.90
20459;DHT22;10388;52.314;7.938;2023-10-08T16:25:17;14.30;99.90
20459;DHT22;10388;52.314;7.938;2023-10-08T16:27:50;14.20;99.90
20459;DHT22;10388;52.314;7.938;2023-10-08T16:30:23;14.20;99.90
20459;DHT22;10388;52.314;7.938;2023-10-08T16:32:56;14.20;99.90
20459;DHT22;10388;52.314;7.938;2023-10-08T16:35:27;14.20;99.90
20459;DHT22;10388;52.314;7.938;2023-10-08T16:37:58;14.20;99.90
20459;DHT22;10388;52.314;7.938;2023-10-08T16:40:28;14.20;99.90
20459;DHT22;10388;52.314;7.938;2023-10-08T16:43:00;14.10;99.90
20459;DHT22;10388;52.314;7.938;2023-10-08T16:45:30;14.10;99.90